Windflight — WDF6324 — position and weather

sailwx.info

Track history (hours):
 
Tides and Currents Weather Stations Pressure Air Temp Water Temp Dewpoint Dewpoint Depression Visibility Wind Speed Wind Dir Waves Ship Positions

Windflight

Owner: Windflight Inc., Medina, WA. More information available from US FCC via Universal Licensing System and Coast Guard Vessel Documentation Center.

Last reported at 2017-Aug-21 06:28 UTC. Time now 2017-Aug-21 06:34 UTC.
Position N 50°04' W 125°13'.

Length 21 m.

Type: Pleasure craft. MMSI: 367473060.

Date/timePositionNaut miles runAvg speedWind from/ knotsBaromVisibWave heightAir tempDewpointWater temp
2017-Aug-21 06:28N 50°04' W 125°13'0 0.0
2017-Aug-21 05:58N 50°04' W 125°13'0 0.0
2017-Aug-21 05:28N 50°04' W 125°13'0 0.0
2017-Aug-21 04:58N 50°04' W 125°13'0 0.0
2017-Aug-21 04:28N 50°04' W 125°13'0 0.0
2017-Aug-21 03:58N 50°04' W 125°13'0 0.0
2017-Aug-21 03:28N 50°04' W 125°13'0 0.0
2017-Aug-21 02:58N 50°04' W 125°13'0 0.0
2017-Aug-21 02:28N 50°04' W 125°13'0 0.0
2017-Aug-21 01:58N 50°04' W 125°13'0 0.0
2017-Aug-21 01:28N 50°04' W 125°13'0 0.0
2017-Aug-21 00:58N 50°04' W 125°13'0 0.1
2017-Aug-21 00:28N 50°04' W 125°13'0 0.0
2017-Aug-20 23:52N 50°04' W 125°13'0 0.1
2017-Aug-20 23:28N 50°04' W 125°13'0 0.0
2017-Aug-20 22:58N 50°04' W 125°13'0 0.1
2017-Aug-20 22:28N 50°04' W 125°13'0 0.0
2017-Aug-20 21:55N 50°04' W 125°13'0 0.0
2017-Aug-20 21:28N 50°04' W 125°13'0 0.0
2017-Aug-20 20:58N 50°04' W 125°13'0 0.0
2017-Aug-20 20:28N 50°04' W 125°13'0 0.1
2017-Aug-20 19:58N 50°04' W 125°13'0 0.0
2017-Aug-20 19:28N 50°04' W 125°13'0 0.0
2017-Aug-20 18:58N 50°04' W 125°13'0 0.0
2017-Aug-20 18:28N 50°04' W 125°13'0 0.0
2017-Aug-20 17:55N 50°04' W 125°13'0 0.0
2017-Aug-20 17:28N 50°04' W 125°13'0 0.0
2017-Aug-20 16:58N 50°04' W 125°13'0 0.0
2017-Aug-20 16:22N 50°04' W 125°13'0 0.0
2017-Aug-20 15:58N 50°04' W 125°13'0 0.0
2017-Aug-20 15:25N 50°04' W 125°13'0 0.0
2017-Aug-20 14:58N 50°04' W 125°13'0 0.0
2017-Aug-20 14:28N 50°04' W 125°13'0 0.0
2017-Aug-20 13:58N 50°04' W 125°13'0 0.0
2017-Aug-20 13:28N 50°04' W 125°13'0 0.0
2017-Aug-20 12:58N 50°04' W 125°13'0 0.1
2017-Aug-20 12:28N 50°04' W 125°13'0 0.0
2017-Aug-20 11:58N 50°04' W 125°13'0 0.0
2017-Aug-20 11:25N 50°04' W 125°13'0 0.0
2017-Aug-20 10:58N 50°04' W 125°13'0 0.0
2017-Aug-20 10:28N 50°04' W 125°13'0 0.0
2017-Aug-20 09:58N 50°04' W 125°13'0 0.0
2017-Aug-20 09:28N 50°04' W 125°13'0 0.0
2017-Aug-20 08:58N 50°04' W 125°13'0 0.1
2017-Aug-20 08:25N 50°04' W 125°13'0 0.0
2017-Aug-20 07:58N 50°04' W 125°13'0 0.0
2017-Aug-20 07:25N 50°04' W 125°13'0 0.0
2017-Aug-20 06:58N 50°04' W 125°13'0 0.1
2017-Aug-20 06:28N 50°04' W 125°13'0 0.1
2017-Aug-20 05:52N 50°04' W 125°13'0 0.0
2017-Aug-20 05:28N 50°04' W 125°13'0 0.0
2017-Aug-20 04:58N 50°04' W 125°13'0 0.0
2017-Aug-20 04:28N 50°04' W 125°13'0 0.0
2017-Aug-20 03:58N 50°04' W 125°13'0 0.0
2017-Aug-20 03:28N 50°04' W 125°13'0 0.0
2017-Aug-20 02:58N 50°04' W 125°13'0 0.1
2017-Aug-20 02:28N 50°04' W 125°13'0 0.0
2017-Aug-20 01:55N 50°04' W 125°13'0 0.1
2017-Aug-20 01:28N 50°04' W 125°13'0 0.0
2017-Aug-20 00:58N 50°04' W 125°13'0 0.0
2017-Aug-20 00:28N 50°04' W 125°13'0 0.0
2017-Aug-19 23:58N 50°04' W 125°13'0 0.0
2017-Aug-19 23:28N 50°04' W 125°13'0 0.0
2017-Aug-19 22:58N 50°04' W 125°13'0 0.0
2017-Aug-19 22:28N 50°04' W 125°13'0 0.1
2017-Aug-19 21:58N 50°04' W 125°13'0 0.0
2017-Aug-19 21:28N 50°04' W 125°13'0 0.0
2017-Aug-19 20:58N 50°04' W 125°13'0 0.0
2017-Aug-19 20:28N 50°04' W 125°13'0 0.1
2017-Aug-19 19:58N 50°04' W 125°13'0 0.1
2017-Aug-19 19:28N 50°04' W 125°13'0 0.0
2017-Aug-19 18:55N 50°04' W 125°13'0 0.0
2017-Aug-19 18:28N 50°04' W 125°13'0 0.2
2017-Aug-19 18:00N 50°04' W 125°13'4 7.7
2017-Aug-19 17:31N 50°06' W 125°18'4 8.8
2017-Aug-19 17:00N 50°10' W 125°22'4 8.0
2017-Aug-19 16:30N 50°14' W 125°23'4 7.2
2017-Aug-19 16:00N 50°17' W 125°21'4 8.6
2017-Aug-19 15:30N 50°19' W 125°15'1 1.6
2017-Aug-19 14:50N 50°19' W 125°13'0 0.0
2017-Aug-19 13:44N 50°19' W 125°13'0 0.0
2017-Aug-19 13:29N 50°19' W 125°13'0 0.0
2017-Aug-19 12:50N 50°19' W 125°13'0 0.0
2017-Aug-19 12:29N 50°19' W 125°13'0 0.0
2017-Aug-19 11:50N 50°19' W 125°13'0 0.0
2017-Aug-19 11:29N 50°19' W 125°13'0 0.1
2017-Aug-19 10:47N 50°19' W 125°13'0 0.1
2017-Aug-19 10:29N 50°19' W 125°13'0 0.0
2017-Aug-19 09:59N 50°19' W 125°13'0 0.0
2017-Aug-19 09:26N 50°19' W 125°13'0 0.0
2017-Aug-19 08:59N 50°19' W 125°13'0 0.0
2017-Aug-19 08:29N 50°19' W 125°13'0 0.0
2017-Aug-19 07:56N 50°19' W 125°13'0 0.0
2017-Aug-19 07:29N 50°19' W 125°13'0 0.0
2017-Aug-19 06:56N 50°19' W 125°13'0 0.0
2017-Aug-19 06:29N 50°19' W 125°13'0 0.0
2017-Aug-19 05:56N 50°19' W 125°13'0 0.0
2017-Aug-19 05:26N 50°19' W 125°13'0 0.0
2017-Aug-19 04:53N 50°19' W 125°13'0 0.0
2017-Aug-19 04:24N 50°19' W 125°13'0 0.0
2017-Aug-19 02:53N 50°19' W 125°13'0 0.0
2017-Aug-19 01:29N 50°19' W 125°13'0 0.0
2017-Aug-19 00:38N 50°19' W 125°13'0 0.0
2017-Aug-19 00:14N 50°19' W 125°13'0 0.0
2017-Aug-18 23:44N 50°19' W 125°13'0 0.0
2017-Aug-18 23:20N 50°19' W 125°13'0 0.0
2017-Aug-18 22:23N 50°19' W 125°13'0 0.0
2017-Aug-18 21:53N 50°19' W 125°13'0 0.0
2017-Aug-18 21:29N 50°19' W 125°13'1 1.7
2017-Aug-18 21:00N 50°19' W 125°14'4 8.2
2017-Aug-18 20:30N 50°17' W 125°20'4 8.1
2017-Aug-18 20:00N 50°20' W 125°26'37 1.5
2017-Aug-17 19:18N 50°44' W 126°10'5 7.1
2017-Aug-17 18:39N 50°48' W 126°13'7 7.3
2017-Aug-17 17:42N 50°49' W 126°24'2 8.4
2017-Aug-17 17:28N 50°49' W 126°27'4 8.4
2017-Aug-17 16:59N 50°50' W 126°33'4 8.1
2017-Aug-17 16:28N 50°51' W 126°39'4 8.7
2017-Aug-17 15:59N 50°53' W 126°45'4 8.2
2017-Aug-17 15:31N 50°55' W 126°51'2 0.1
2017-Aug-16 19:01N 50°56' W 126°53'0 7.2
2017-Aug-16 18:59N 50°56' W 126°53'4 7.8
2017-Aug-16 18:29N 50°52' W 126°55'4 8.0
2017-Aug-16 17:58N 50°49' W 126°60'4 7.4
2017-Aug-16 17:29N 50°49' W 127°05'4 8.6
2017-Aug-16 17:00N 50°51' W 127°11'4 8.4
2017-Aug-16 16:30N 50°54' W 127°16'1 2.1
2017-Aug-16 15:57N 50°54' W 127°18'0 0.0
2017-Aug-16 14:57N 50°54' W 127°18'0 0.0
2017-Aug-16 14:27N 50°54' W 127°18'0 0.0
2017-Aug-16 13:57N 50°54' W 127°18'0 0.0
2017-Aug-16 13:27N 50°54' W 127°18'0 0.0
2017-Aug-16 12:57N 50°54' W 127°18'0 0.0
2017-Aug-16 12:27N 50°54' W 127°18'0 0.0
2017-Aug-16 11:57N 50°54' W 127°18'0 0.0
2017-Aug-16 11:27N 50°54' W 127°18'0 0.0
2017-Aug-16 10:57N 50°54' W 127°18'0 0.0
2017-Aug-16 10:21N 50°54' W 127°18'0 0.0
2017-Aug-16 09:45N 50°54' W 127°18'0 0.0
2017-Aug-16 08:03N 50°54' W 127°18'0 0.0
2017-Aug-16 07:57N 50°54' W 127°18'0 0.0
2017-Aug-16 07:27N 50°54' W 127°18'0 0.1
2017-Aug-16 06:51N 50°54' W 127°17'0 0.0
2017-Aug-16 06:27N 50°54' W 127°17'0 0.0
2017-Aug-16 05:57N 50°54' W 127°17'0 0.0
2017-Aug-16 05:27N 50°54' W 127°17'0 0.0
2017-Aug-16 04:57N 50°54' W 127°17'0 0.0
2017-Aug-16 03:33N 50°54' W 127°17'0 0.0
2017-Aug-16 03:27N 50°54' W 127°17'0 0.0
2017-Aug-16 02:51N 50°54' W 127°17'0 0.0
2017-Aug-16 02:15N 50°54' W 127°17'0 0.0
2017-Aug-16 01:51N 50°54' W 127°17'0 0.0
2017-Aug-16 01:27N 50°54' W 127°17'0 0.0
2017-Aug-16 00:57N 50°54' W 127°17'0 0.0
2017-Aug-15 22:51N 50°54' W 127°17'0 0.0
2017-Aug-15 22:27N 50°54' W 127°17'0 0.0
2017-Aug-15 21:57N 50°54' W 127°17'0 0.0
2017-Aug-15 21:27N 50°54' W 127°17'0 0.0
2017-Aug-15 20:57N 50°54' W 127°17'0 0.0
2017-Aug-15 20:30N 50°54' W 127°17'1 1.8
2017-Aug-15 20:00N 50°53' W 127°18'4 8.3
2017-Aug-15 19:30N 50°55' W 127°24'4 7.6
2017-Aug-15 19:00N 50°57' W 127°29'4 8.4
2017-Aug-15 18:30N 50°60' W 127°34'4 8.1
2017-Aug-15 18:00N 51°02' W 127°38'4 7.9
2017-Aug-15 17:30N 51°05' W 127°43'4 7.9
2017-Aug-15 16:59N 51°08' W 127°48'4 8.3
2017-Aug-15 16:30N 51°12' W 127°50'5 8.7
2017-Aug-15 15:58N 51°16' W 127°50'4 8.8
2017-Aug-15 15:30N 51°21' W 127°50'4 9.0
2017-Aug-15 15:00N 51°25' W 127°47'4 9.0
2017-Aug-15 14:30N 51°28' W 127°43'2 2.6
2017-Aug-15 13:49N 51°30' W 127°43'0 0.0
2017-Aug-15 13:25N 51°30' W 127°43'0 0.0
2017-Aug-15 12:49N 51°30' W 127°43'0 0.0
2017-Aug-15 12:25N 51°30' W 127°43'0 0.0
2017-Aug-15 10:19N 51°30' W 127°43'0 0.0
2017-Aug-15 09:55N 51°30' W 127°43'0 0.0
2017-Aug-15 06:55N 51°30' W 127°43'0 0.0
2017-Aug-15 06:25N 51°30' W 127°43'0 0.0
2017-Aug-15 05:49N 51°30' W 127°43'0 0.0
2017-Aug-15 03:43N 51°30' W 127°43'0 0.0
2017-Aug-15 01:13N 51°30' W 127°43'0 0.0
2017-Aug-14 22:45N 51°30' W 127°43'0 1.1
2017-Aug-14 22:30N 51°30' W 127°42'2 3.8
2017-Aug-14 22:01N 51°31' W 127°45'4 8.2
2017-Aug-14 21:30N 51°33' W 127°51'4 8.5
2017-Aug-14 21:00N 51°36' W 127°55'4 7.8
2017-Aug-14 20:30N 51°39' W 127°59'4 7.8
2017-Aug-14 20:00N 51°40' W 128°05'4 8.2
2017-Aug-14 19:30N 51°44' W 128°04'4 8.7
2017-Aug-14 19:00N 51°48' W 128°02'4 8.9
2017-Aug-14 18:30N 51°52' W 127°59'4 8.7
2017-Aug-14 18:00N 51°56' W 127°57'5 9.7
2017-Aug-14 17:30N 52°01' W 127°56'5 7.0
2017-Aug-14 16:48N 52°05' W 128°01'2 7.9
2017-Aug-14 16:30N 52°05' W 128°05'4 8.3
2017-Aug-14 16:00N 52°08' W 128°08'2 0.1
2017-Aug-13 21:39N 52°09' W 128°05'2 7.3
2017-Aug-13 21:20N 52°10' W 128°07'4 6.7
2017-Aug-13 20:46N 52°13' W 128°11'9 9.2
2017-Aug-13 19:48N 52°16' W 128°25'4 7.1
2017-Aug-13 19:11N 52°20' W 128°23'1 7.1
2017-Aug-13 18:59N 52°21' W 128°22'  
Track history (hours):
 
Tides and Currents Weather Stations Pressure Air Temp Water Temp Dewpoint Dewpoint Depression Visibility Wind Speed Wind Dir Waves Ship Positions

Windflight

Owner: Windflight Inc., Medina, WA. More information available from US FCC via Universal Licensing System and Coast Guard Vessel Documentation Center.

Last reported at 2017-Aug-21 06:28 UTC. Time now 2017-Aug-21 06:34 UTC.
Position N 50°04' W 125°13'.

Length 21 m.

Type: Pleasure craft. MMSI: 367473060.

Date/timePositionNaut miles runAvg speedWind from/ knotsBaromVisibWave heightAir tempDewpointWater temp
2017-Aug-21 06:28N 50°04' W 125°13'0 0.0
2017-Aug-21 05:58N 50°04' W 125°13'0 0.0
2017-Aug-21 05:28N 50°04' W 125°13'0 0.0
2017-Aug-21 04:58N 50°04' W 125°13'0 0.0
2017-Aug-21 04:28N 50°04' W 125°13'0 0.0
2017-Aug-21 03:58N 50°04' W 125°13'0 0.0
2017-Aug-21 03:28N 50°04' W 125°13'0 0.0
2017-Aug-21 02:58N 50°04' W 125°13'0 0.0
2017-Aug-21 02:28N 50°04' W 125°13'0 0.0
2017-Aug-21 01:58N 50°04' W 125°13'0 0.0
2017-Aug-21 01:28N 50°04' W 125°13'0 0.0
2017-Aug-21 00:58N 50°04' W 125°13'0 0.1
2017-Aug-21 00:28N 50°04' W 125°13'0 0.0
2017-Aug-20 23:52N 50°04' W 125°13'0 0.1
2017-Aug-20 23:28N 50°04' W 125°13'0 0.0
2017-Aug-20 22:58N 50°04' W 125°13'0 0.1
2017-Aug-20 22:28N 50°04' W 125°13'0 0.0
2017-Aug-20 21:55N 50°04' W 125°13'0 0.0
2017-Aug-20 21:28N 50°04' W 125°13'0 0.0
2017-Aug-20 20:58N 50°04' W 125°13'0 0.0
2017-Aug-20 20:28N 50°04' W 125°13'0 0.1
2017-Aug-20 19:58N 50°04' W 125°13'0 0.0
2017-Aug-20 19:28N 50°04' W 125°13'0 0.0
2017-Aug-20 18:58N 50°04' W 125°13'0 0.0
2017-Aug-20 18:28N 50°04' W 125°13'0 0.0
2017-Aug-20 17:55N 50°04' W 125°13'0 0.0
2017-Aug-20 17:28N 50°04' W 125°13'0 0.0
2017-Aug-20 16:58N 50°04' W 125°13'0 0.0
2017-Aug-20 16:22N 50°04' W 125°13'0 0.0
2017-Aug-20 15:58N 50°04' W 125°13'0 0.0
2017-Aug-20 15:25N 50°04' W 125°13'0 0.0
2017-Aug-20 14:58N 50°04' W 125°13'0 0.0
2017-Aug-20 14:28N 50°04' W 125°13'0 0.0
2017-Aug-20 13:58N 50°04' W 125°13'0 0.0
2017-Aug-20 13:28N 50°04' W 125°13'0 0.0
2017-Aug-20 12:58N 50°04' W 125°13'0 0.1
2017-Aug-20 12:28N 50°04' W 125°13'0 0.0
2017-Aug-20 11:58N 50°04' W 125°13'0 0.0
2017-Aug-20 11:25N 50°04' W 125°13'0 0.0
2017-Aug-20 10:58N 50°04' W 125°13'0 0.0
2017-Aug-20 10:28N 50°04' W 125°13'0 0.0
2017-Aug-20 09:58N 50°04' W 125°13'0 0.0
2017-Aug-20 09:28N 50°04' W 125°13'0 0.0
2017-Aug-20 08:58N 50°04' W 125°13'0 0.1
2017-Aug-20 08:25N 50°04' W 125°13'0 0.0
2017-Aug-20 07:58N 50°04' W 125°13'0 0.0
2017-Aug-20 07:25N 50°04' W 125°13'0 0.0
2017-Aug-20 06:58N 50°04' W 125°13'0 0.1
2017-Aug-20 06:28N 50°04' W 125°13'0 0.1
2017-Aug-20 05:52N 50°04' W 125°13'0 0.0
2017-Aug-20 05:28N 50°04' W 125°13'0 0.0
2017-Aug-20 04:58N 50°04' W 125°13'0 0.0
2017-Aug-20 04:28N 50°04' W 125°13'0 0.0
2017-Aug-20 03:58N 50°04' W 125°13'0 0.0
2017-Aug-20 03:28N 50°04' W 125°13'0 0.0
2017-Aug-20 02:58N 50°04' W 125°13'0 0.1
2017-Aug-20 02:28N 50°04' W 125°13'0 0.0
2017-Aug-20 01:55N 50°04' W 125°13'0 0.1
2017-Aug-20 01:28N 50°04' W 125°13'0 0.0
2017-Aug-20 00:58N 50°04' W 125°13'0 0.0
2017-Aug-20 00:28N 50°04' W 125°13'0 0.0
2017-Aug-19 23:58N 50°04' W 125°13'0 0.0
2017-Aug-19 23:28N 50°04' W 125°13'0 0.0
2017-Aug-19 22:58N 50°04' W 125°13'0 0.0
2017-Aug-19 22:28N 50°04' W 125°13'0 0.1
2017-Aug-19 21:58N 50°04' W 125°13'0 0.0
2017-Aug-19 21:28N 50°04' W 125°13'0 0.0
2017-Aug-19 20:58N 50°04' W 125°13'0 0.0
2017-Aug-19 20:28N 50°04' W 125°13'0 0.1
2017-Aug-19 19:58N 50°04' W 125°13'0 0.1
2017-Aug-19 19:28N 50°04' W 125°13'0 0.0
2017-Aug-19 18:55N 50°04' W 125°13'0 0.0
2017-Aug-19 18:28N 50°04' W 125°13'0 0.2
2017-Aug-19 18:00N 50°04' W 125°13'4 7.7
2017-Aug-19 17:31N 50°06' W 125°18'4 8.8
2017-Aug-19 17:00N 50°10' W 125°22'4 8.0
2017-Aug-19 16:30N 50°14' W 125°23'4 7.2
2017-Aug-19 16:00N 50°17' W 125°21'4 8.6
2017-Aug-19 15:30N 50°19' W 125°15'1 1.6
2017-Aug-19 14:50N 50°19' W 125°13'0 0.0
2017-Aug-19 13:44N 50°19' W 125°13'0 0.0
2017-Aug-19 13:29N 50°19' W 125°13'0 0.0
2017-Aug-19 12:50N 50°19' W 125°13'0 0.0
2017-Aug-19 12:29N 50°19' W 125°13'0 0.0
2017-Aug-19 11:50N 50°19' W 125°13'0 0.0
2017-Aug-19 11:29N 50°19' W 125°13'0 0.1
2017-Aug-19 10:47N 50°19' W 125°13'0 0.1
2017-Aug-19 10:29N 50°19' W 125°13'0 0.0
2017-Aug-19 09:59N 50°19' W 125°13'0 0.0
2017-Aug-19 09:26N 50°19' W 125°13'0 0.0
2017-Aug-19 08:59N 50°19' W 125°13'0 0.0
2017-Aug-19 08:29N 50°19' W 125°13'0 0.0
2017-Aug-19 07:56N 50°19' W 125°13'0 0.0
2017-Aug-19 07:29N 50°19' W 125°13'0 0.0
2017-Aug-19 06:56N 50°19' W 125°13'0 0.0
2017-Aug-19 06:29N 50°19' W 125°13'0 0.0
2017-Aug-19 05:56N 50°19' W 125°13'0 0.0
2017-Aug-19 05:26N 50°19' W 125°13'0 0.0
2017-Aug-19 04:53N 50°19' W 125°13'0 0.0
2017-Aug-19 04:24N 50°19' W 125°13'0 0.0
2017-Aug-19 02:53N 50°19' W 125°13'0 0.0
2017-Aug-19 01:29N 50°19' W 125°13'0 0.0
2017-Aug-19 00:38N 50°19' W 125°13'0 0.0
2017-Aug-19 00:14N 50°19' W 125°13'0 0.0
2017-Aug-18 23:44N 50°19' W 125°13'0 0.0
2017-Aug-18 23:20N 50°19' W 125°13'0 0.0
2017-Aug-18 22:23N 50°19' W 125°13'0 0.0
2017-Aug-18 21:53N 50°19' W 125°13'0 0.0
2017-Aug-18 21:29N 50°19' W 125°13'1 1.7
2017-Aug-18 21:00N 50°19' W 125°14'4 8.2
2017-Aug-18 20:30N 50°17' W 125°20'4 8.1
2017-Aug-18 20:00N 50°20' W 125°26'37 1.5
2017-Aug-17 19:18N 50°44' W 126°10'5 7.1
2017-Aug-17 18:39N 50°48' W 126°13'7 7.3
2017-Aug-17 17:42N 50°49' W 126°24'2 8.4
2017-Aug-17 17:28N 50°49' W 126°27'4 8.4
2017-Aug-17 16:59N 50°50' W 126°33'4 8.1
2017-Aug-17 16:28N 50°51' W 126°39'4 8.7
2017-Aug-17 15:59N 50°53' W 126°45'4 8.2
2017-Aug-17 15:31N 50°55' W 126°51'2 0.1
2017-Aug-16 19:01N 50°56' W 126°53'0 7.2
2017-Aug-16 18:59N 50°56' W 126°53'4 7.8
2017-Aug-16 18:29N 50°52' W 126°55'4 8.0
2017-Aug-16 17:58N 50°49' W 126°60'4 7.4
2017-Aug-16 17:29N 50°49' W 127°05'4 8.6
2017-Aug-16 17:00N 50°51' W 127°11'4 8.4
2017-Aug-16 16:30N 50°54' W 127°16'1 2.1
2017-Aug-16 15:57N 50°54' W 127°18'0 0.0
2017-Aug-16 14:57N 50°54' W 127°18'0 0.0
2017-Aug-16 14:27N 50°54' W 127°18'0 0.0
2017-Aug-16 13:57N 50°54' W 127°18'0 0.0
2017-Aug-16 13:27N 50°54' W 127°18'0 0.0
2017-Aug-16 12:57N 50°54' W 127°18'0 0.0
2017-Aug-16 12:27N 50°54' W 127°18'0 0.0
2017-Aug-16 11:57N 50°54' W 127°18'0 0.0
2017-Aug-16 11:27N 50°54' W 127°18'0 0.0
2017-Aug-16 10:57N 50°54' W 127°18'0 0.0
2017-Aug-16 10:21N 50°54' W 127°18'0 0.0
2017-Aug-16 09:45N 50°54' W 127°18'0 0.0
2017-Aug-16 08:03N 50°54' W 127°18'0 0.0
2017-Aug-16 07:57N 50°54' W 127°18'0 0.0
2017-Aug-16 07:27N 50°54' W 127°18'0 0.1
2017-Aug-16 06:51N 50°54' W 127°17'0 0.0
2017-Aug-16 06:27N 50°54' W 127°17'0 0.0
2017-Aug-16 05:57N 50°54' W 127°17'0 0.0
2017-Aug-16 05:27N 50°54' W 127°17'0 0.0
2017-Aug-16 04:57N 50°54' W 127°17'0 0.0
2017-Aug-16 03:33N 50°54' W 127°17'0 0.0
2017-Aug-16 03:27N 50°54' W 127°17'0 0.0
2017-Aug-16 02:51N 50°54' W 127°17'0 0.0
2017-Aug-16 02:15N 50°54' W 127°17'0 0.0
2017-Aug-16 01:51N 50°54' W 127°17'0 0.0
2017-Aug-16 01:27N 50°54' W 127°17'0 0.0
2017-Aug-16 00:57N 50°54' W 127°17'0 0.0
2017-Aug-15 22:51N 50°54' W 127°17'0 0.0
2017-Aug-15 22:27N 50°54' W 127°17'0 0.0
2017-Aug-15 21:57N 50°54' W 127°17'0 0.0
2017-Aug-15 21:27N 50°54' W 127°17'0 0.0
2017-Aug-15 20:57N 50°54' W 127°17'0 0.0
2017-Aug-15 20:30N 50°54' W 127°17'1 1.8
2017-Aug-15 20:00N 50°53' W 127°18'4 8.3
2017-Aug-15 19:30N 50°55' W 127°24'4 7.6
2017-Aug-15 19:00N 50°57' W 127°29'4 8.4
2017-Aug-15 18:30N 50°60' W 127°34'4 8.1
2017-Aug-15 18:00N 51°02' W 127°38'4 7.9
2017-Aug-15 17:30N 51°05' W 127°43'4 7.9
2017-Aug-15 16:59N 51°08' W 127°48'4 8.3
2017-Aug-15 16:30N 51°12' W 127°50'5 8.7
2017-Aug-15 15:58N 51°16' W 127°50'4 8.8
2017-Aug-15 15:30N 51°21' W 127°50'4 9.0
2017-Aug-15 15:00N 51°25' W 127°47'4 9.0
2017-Aug-15 14:30N 51°28' W 127°43'2 2.6
2017-Aug-15 13:49N 51°30' W 127°43'0 0.0
2017-Aug-15 13:25N 51°30' W 127°43'0 0.0
2017-Aug-15 12:49N 51°30' W 127°43'0 0.0
2017-Aug-15 12:25N 51°30' W 127°43'0 0.0
2017-Aug-15 10:19N 51°30' W 127°43'0 0.0
2017-Aug-15 09:55N 51°30' W 127°43'0 0.0
2017-Aug-15 06:55N 51°30' W 127°43'0 0.0
2017-Aug-15 06:25N 51°30' W 127°43'0 0.0
2017-Aug-15 05:49N 51°30' W 127°43'0 0.0
2017-Aug-15 03:43N 51°30' W 127°43'0 0.0
2017-Aug-15 01:13N 51°30' W 127°43'0 0.0
2017-Aug-14 22:45N 51°30' W 127°43'0 1.1
2017-Aug-14 22:30N 51°30' W 127°42'2 3.8
2017-Aug-14 22:01N 51°31' W 127°45'4 8.2
2017-Aug-14 21:30N 51°33' W 127°51'4 8.5
2017-Aug-14 21:00N 51°36' W 127°55'4 7.8
2017-Aug-14 20:30N 51°39' W 127°59'4 7.8
2017-Aug-14 20:00N 51°40' W 128°05'4 8.2
2017-Aug-14 19:30N 51°44' W 128°04'4 8.7
2017-Aug-14 19:00N 51°48' W 128°02'4 8.9
2017-Aug-14 18:30N 51°52' W 127°59'4 8.7
2017-Aug-14 18:00N 51°56' W 127°57'5 9.7
2017-Aug-14 17:30N 52°01' W 127°56'5 7.0
2017-Aug-14 16:48N 52°05' W 128°01'2 7.9
2017-Aug-14 16:30N 52°05' W 128°05'4 8.3
2017-Aug-14 16:00N 52°08' W 128°08'2 0.1
2017-Aug-13 21:39N 52°09' W 128°05'2 7.3
2017-Aug-13 21:20N 52°10' W 128°07'4 6.7
2017-Aug-13 20:46N 52°13' W 128°11'9 9.2
2017-Aug-13 19:48N 52°16' W 128°25'4 7.1
2017-Aug-13 19:11N 52°20' W 128°23'1 7.1
2017-Aug-13 18:59N 52°21' W 128°22'  

Dump ship's entire track history